Time;durP1;ratioP1;P1;durP2;ratioP2;P2;SDS_P1;SDS_P2;PMS_P1;PMS_P2;Temp;Humidity;BMP_temperature;BMP_pressure;BME280_temperature;BME280_humidity;BME280_pressure;Samples;Min_cycle;Max_cycle;Signal;HPM_P1;HPM_P2
2024/03/27 00:02:19;;;;;;;1.23;0.40;;;7.40;99.90;;;;;;5052381;28;20101;-58
2024/03/27 00:04:44;;;;;;;2.00;0.55;;;7.40;99.90;;;;;;5052679;28;20490;-61
2024/03/27 00:07:11;;;;;;;1.98;0.55;;;7.40;99.90;;;;;;5052668;28;20033;-64
2024/03/27 00:09:36;;;;;;;2.42;0.60;;;7.30;99.90;;;;;;5052344;28;20040;-65
2024/03/27 00:12:02;;;;;;;0.68;0.43;;;7.40;99.90;;;;;;5036069;28;20394;-64
2024/03/27 00:14:28;;;;;;;1.58;0.63;;;7.40;99.90;;;;;;5052632;28;20037;-65
2024/03/27 00:16:54;;;;;;;1.15;0.50;;;7.30;99.90;;;;;;5052204;28;20057;-64
2024/03/27 00:19:19;;;;;;;1.48;0.68;;;7.20;99.90;;;;;;5052270;28;20127;-64
2024/03/27 00:21:45;;;;;;;1.10;0.50;;;7.10;99.90;;;;;;5052432;28;20099;-64
2024/03/27 00:24:11;;;;;;;1.10;0.50;;;7.00;99.90;;;;;;5052526;28;20041;-64
2024/03/27 00:26:37;;;;;;;1.48;0.70;;;7.00;99.90;;;;;;5052146;28;20045;-65
2024/03/27 00:29:03;;;;;;;1.52;0.80;;;7.00;99.90;;;;;;5052509;28;20055;-65
2024/03/27 00:31:29;;;;;;;2.67;0.90;;;7.00;99.90;;;;;;5052317;28;20068;-65
2024/03/27 00:33:55;;;;;;;1.92;0.68;;;6.90;99.90;;;;;;5052368;28;20045;-65
2024/03/27 00:36:20;;;;;;;1.63;0.70;;;6.90;99.90;;;;;;5051910;28;20087;-65
2024/03/27 00:38:46;;;;;;;2.25;0.68;;;7.00;99.90;;;;;;5052338;28;20033;-64
2024/03/27 00:41:12;;;;;;;1.40;0.60;;;6.90;99.90;;;;;;5035347;28;20080;-64
2024/03/27 00:43:38;;;;;;;2.35;0.75;;;6.90;99.90;;;;;;5052203;28;20087;-65
2024/03/27 00:46:04;;;;;;;1.00;0.55;;;6.90;99.90;;;;;;5052344;28;20072;-64
2024/03/27 00:48:30;;;;;;;1.90;1.35;;;6.80;99.90;;;;;;5052346;28;20058;-65
2024/03/27 00:50:56;;;;;;;3.22;0.65;;;6.80;99.90;;;;;;5052095;28;20041;-64
2024/03/27 00:53:22;;;;;;;1.30;0.60;;;6.80;99.90;;;;;;5052075;28;20113;-65
2024/03/27 00:55:47;;;;;;;1.98;0.82;;;6.80;99.90;;;;;;5052082;28;20049;-64
2024/03/27 00:58:13;;;;;;;1.55;0.82;;;6.80;99.90;;;;;;5051989;28;20033;-66
2024/03/27 01:00:39;;;;;;;1.83;0.77;;;6.70;99.90;;;;;;5051897;28;20453;-66
2024/03/27 01:03:05;;;;;;;2.65;0.75;;;6.70;99.90;;;;;;5052007;28;20048;-66
2024/03/27 01:05:30;;;;;;;1.55;0.75;;;6.70;99.90;;;;;;5051876;28;20044;-66
2024/03/27 01:07:56;;;;;;;3.00;0.60;;;6.60;99.90;;;;;;5051869;28;20037;-66
2024/03/27 01:10:22;;;;;;;3.83;1.02;;;6.60;99.90;;;;;;5052092;28;20044;-66
2024/03/27 01:12:48;;;;;;;1.90;0.80;;;6.60;99.90;;;;;;5051979;28;20401;-66
2024/03/27 01:15:13;;;;;;;1.92;1.40;;;6.50;99.90;;;;;;5035282;28;20041;-66
2024/03/27 01:17:40;;;;;;;2.00;0.90;;;6.50;99.90;;;;;;5051948;28;20045;-65
2024/03/27 01:20:05;;;;;;;1.70;0.90;;;6.50;99.90;;;;;;5052270;28;20406;-65
2024/03/27 01:22:31;;;;;;;2.10;0.95;;;6.50;99.90;;;;;;5052822;28;20053;-67
2024/03/27 01:24:57;;;;;;;1.80;0.70;;;6.50;99.90;;;;;;5055700;28;20037;-65
2024/03/27 01:27:23;;;;;;;1.95;1.08;;;6.50;99.90;;;;;;5055381;28;20037;-65
2024/03/27 01:29:49;;;;;;;1.92;1.00;;;6.50;99.90;;;;;;5054809;28;20191;-64
2024/03/27 01:32:14;;;;;;;1.95;1.25;;;6.50;99.90;;;;;;5055137;28;20497;-65
2024/03/27 01:34:40;;;;;;;2.70;1.85;;;6.50;99.90;;;;;;5054950;28;20101;-65
2024/03/27 01:37:06;;;;;;;5.95;2.50;;;6.50;99.90;;;;;;5055203;28;20037;-65
2024/03/27 01:39:32;;;;;;;3.25;2.20;;;6.40;99.90;;;;;;5055028;28;20064;-65
2024/03/27 01:41:57;;;;;;;3.47;2.17;;;6.40;99.90;;;;;;5055125;28;20037;-65
2024/03/27 01:44:23;;;;;;;2.97;1.98;;;6.40;99.90;;;;;;5055403;28;20120;-64
2024/03/27 01:46:49;;;;;;;3.58;2.00;;;6.40;99.90;;;;;;5054897;28;20033;-65
2024/03/27 01:49:15;;;;;;;2.72;1.98;;;6.30;99.90;;;;;;5055141;28;20417;-64
2024/03/27 01:51:40;;;;;;;3.45;1.80;;;6.30;99.90;;;;;;5054759;28;20037;-65
2024/03/27 01:54:06;;;;;;;3.33;2.00;;;6.30;99.90;;;;;;5054944;28;20041;-65
2024/03/27 01:56:32;;;;;;;4.43;2.35;;;6.30;99.90;;;;;;5054686;28;20119;-66
2024/03/27 01:58:58;;;;;;;2.60;2.00;;;6.30;99.90;;;;;;5054968;28;20056;-65
2024/03/27 02:01:24;;;;;;;3.63;2.35;;;6.40;99.90;;;;;;5054776;28;20390;-64
2024/03/27 02:03:49;;;;;;;2.88;2.30;;;6.40;99.90;;;;;;5054925;28;20098;-64
2024/03/27 02:06:15;;;;;;;4.10;2.00;;;6.40;99.90;;;;;;5054888;28;20040;-64
2024/03/27 02:08:41;;;;;;;3.88;1.80;;;6.40;99.90;;;;;;5054496;28;20037;-64
2024/03/27 02:11:07;;;;;;;2.75;1.55;;;6.40;99.90;;;;;;5054930;28;20087;-64
2024/03/27 02:13:33;;;;;;;3.25;1.38;;;6.40;99.90;;;;;;5054511;28;20455;-64
2024/03/27 02:15:59;;;;;;;2.78;1.42;;;6.40;99.90;;;;;;5054284;28;20073;-66
2024/03/27 02:18:25;;;;;;;2.40;1.25;;;6.40;99.90;;;;;;5054698;28;20375;-64
2024/03/27 02:20:50;;;;;;;2.95;1.20;;;6.40;99.90;;;;;;5037582;28;20041;-64
2024/03/27 02:23:16;;;;;;;3.90;1.17;;;6.40;99.90;;;;;;5037812;28;20056;-65
2024/03/27 02:25:42;;;;;;;3.17;1.30;;;6.50;99.90;;;;;;5054485;28;20041;-64
2024/03/27 02:28:08;;;;;;;2.30;1.20;;;6.50;99.90;;;;;;5054505;28;20041;-64
2024/03/27 02:30:33;;;;;;;1.52;0.90;;;6.50;99.90;;;;;;5054183;28;20390;-64
2024/03/27 02:32:59;;;;;;;2.22;1.10;;;6.50;99.90;;;;;;5054039;28;20060;-66
2024/03/27 02:35:25;;;;;;;3.15;1.02;;;6.50;99.90;;;;;;5054054;28;20041;-65
2024/03/27 02:37:50;;;;;;;3.25;1.00;;;6.40;99.90;;;;;;5054226;28;20041;-65
2024/03/27 02:40:16;;;;;;;3.08;1.02;;;6.50;99.90;;;;;;5054396;28;20075;-64
2024/03/27 02:42:42;;;;;;;3.13;1.20;;;6.40;99.90;;;;;;5053901;28;20094;-64
2024/03/27 02:45:08;;;;;;;3.08;1.20;;;6.40;99.90;;;;;;5053951;28;20073;-65
2024/03/27 02:47:35;;;;;;;4.43;1.13;;;6.40;99.90;;;;;;5053714;28;20051;-65
2024/03/27 02:50:00;;;;;;;5.35;1.50;;;6.40;99.90;;;;;;5053938;28;20045;-65
2024/03/27 02:52:26;;;;;;;2.28;1.30;;;6.40;99.90;;;;;;5054073;28;20179;-65
2024/03/27 02:54:52;;;;;;;2.35;1.08;;;6.30;99.90;;;;;;5053902;28;20045;-65
2024/03/27 02:57:18;;;;;;;1.77;0.98;;;6.30;99.90;;;;;;5053988;28;20045;-65
2024/03/27 02:59:43;;;;;;;1.95;1.02;;;6.40;99.90;;;;;;5053554;28;20048;-65
2024/03/27 03:02:09;;;;;;;1.92;0.80;;;6.40;99.90;;;;;;5053269;28;20119;-65
2024/03/27 03:04:35;;;;;;;1.90;0.85;;;6.40;99.90;;;;;;5053276;28;20446;-65
2024/03/27 03:07:01;;;;;;;2.58;0.80;;;6.40;99.90;;;;;;5053156;28;20033;-65
2024/03/27 03:09:26;;;;;;;2.05;0.90;;;6.40;99.90;;;;;;5053176;28;20091;-64
2024/03/27 03:11:52;;;;;;;3.13;0.75;;;6.40;99.90;;;;;;5053345;28;20045;-65
2024/03/27 03:14:18;;;;;;;3.25;0.98;;;6.40;99.90;;;;;;5053229;28;20040;-64
2024/03/27 03:16:44;;;;;;;3.63;1.00;;;6.40;99.90;;;;;;5053228;28;20049;-64
2024/03/27 03:19:10;;;;;;;6.32;2.17;;;6.40;99.90;;;;;;5053107;28;20056;-64
2024/03/27 03:21:36;;;;;;;2.70;1.33;;;6.40;99.90;;;;;;5053613;28;20469;-64
2024/03/27 03:24:01;;;;;;;1.90;1.20;;;6.40;99.90;;;;;;5053549;28;20068;-65
2024/03/27 03:26:27;;;;;;;5.25;1.55;;;6.50;99.90;;;;;;5053117;28;20147;-65
2024/03/27 03:28:53;;;;;;;3.30;1.60;;;6.50;99.90;;;;;;5052829;28;20493;-66
2024/03/27 03:31:19;;;;;;;3.92;1.25;;;6.40;99.90;;;;;;5069802;28;20067;-66
2024/03/27 03:33:45;;;;;;;3.25;1.40;;;6.50;99.90;;;;;;5052936;28;20045;-66
2024/03/27 03:36:10;;;;;;;2.42;1.40;;;6.50;99.90;;;;;;5052850;28;20094;-65
2024/03/27 03:38:36;;;;;;;3.67;1.80;;;6.50;99.90;;;;;;5052954;28;20045;-65
2024/03/27 03:41:03;;;;;;;2.95;1.38;;;6.50;99.90;;;;;;5053002;28;20041;-65
2024/03/27 03:43:29;;;;;;;3.60;1.80;;;6.50;99.90;;;;;;5053041;28;20042;-65
2024/03/27 03:45:55;;;;;;;5.97;1.65;;;6.50;99.90;;;;;;5052080;28;20036;-65
2024/03/27 03:48:23;;;;;;;7.22;1.75;;;6.50;99.90;;;;;;5052915;28;20041;-65
2024/03/27 03:50:49;;;;;;;4.25;1.73;;;6.50;99.90;;;;;;5052645;28;20127;-65
2024/03/27 03:53:15;;;;;;;9.25;2.00;;;6.50;99.90;;;;;;5053054;28;20095;-65
2024/03/27 03:55:41;;;;;;;4.28;1.98;;;6.50;99.90;;;;;;5052563;28;20049;-65
2024/03/27 03:58:06;;;;;;;5.40;2.17;;;6.50;99.90;;;;;;5052307;28;20056;-65
2024/03/27 04:00:32;;;;;;;3.70;1.83;;;6.50;99.90;;;;;;5052540;28;20052;-65
2024/03/27 04:02:58;;;;;;;2.65;1.50;;;6.40;99.90;;;;;;5052305;28;20044;-65
2024/03/27 04:05:23;;;;;;;7.68;2.45;;;6.50;99.90;;;;;;5052463;28;20505;-65
2024/03/27 04:07:49;;;;;;;4.65;1.80;;;6.50;99.90;;;;;;5052420;28;20052;-65
2024/03/27 04:10:15;;;;;;;5.93;1.77;;;6.50;99.90;;;;;;5052770;28;20107;-65
2024/03/27 04:12:41;;;;;;;3.63;1.90;;;6.50;99.90;;;;;;5052319;28;20116;-65
2024/03/27 04:15:07;;;;;;;4.70;1.90;;;6.50;99.90;;;;;;5052505;28;20489;-65
2024/03/27 04:17:32;;;;;;;5.00;1.70;;;6.50;99.90;;;;;;5052310;28;20173;-65
2024/03/27 04:19:58;;;;;;;4.03;1.52;;;6.50;99.90;;;;;;5052525;28;20041;-65
2024/03/27 04:22:24;;;;;;;3.35;1.50;;;6.60;99.90;;;;;;5052495;28;20520;-65
2024/03/27 04:24:50;;;;;;;4.53;1.73;;;6.60;99.90;;;;;;5052545;28;20049;-65
2024/03/27 04:27:15;;;;;;;4.70;1.73;;;6.60;99.90;;;;;;5052029;28;20087;-66
2024/03/27 04:29:41;;;;;;;4.40;1.80;;;6.60;99.90;;;;;;5051991;28;20041;-65
2024/03/27 04:32:07;;;;;;;5.72;1.73;;;6.60;99.90;;;;;;5052193;28;20045;-67
2024/03/27 04:34:33;;;;;;;4.50;1.75;;;6.60;99.90;;;;;;5052457;28;20112;-66
2024/03/27 04:36:59;;;;;;;4.95;1.73;;;6.50;99.90;;;;;;5052117;28;20041;-68
2024/03/27 04:39:25;;;;;;;4.88;1.40;;;6.50;99.90;;;;;;5052299;28;20083;-65
2024/03/27 04:41:50;;;;;;;5.60;1.50;;;6.50;99.90;;;;;;5052463;28;20048;-65
2024/03/27 04:44:16;;;;;;;8.05;1.70;;;6.50;99.90;;;;;;5052086;28;20052;-65
2024/03/27 04:46:42;;;;;;;4.97;1.42;;;6.50;99.90;;;;;;5052255;28;20041;-65
2024/03/27 04:49:08;;;;;;;5.65;1.65;;;6.40;99.90;;;;;;5051780;28;20044;-65
2024/03/27 04:51:33;;;;;;;5.90;1.77;;;6.40;99.90;;;;;;5052249;28;20045;-65
2024/03/27 04:53:59;;;;;;;5.93;1.88;;;6.40;99.90;;;;;;5052278;28;20037;-65
2024/03/27 04:56:25;;;;;;;6.90;1.40;;;6.40;99.90;;;;;;5053294;28;20132;-66
2024/03/27 04:58:50;;;;;;;4.78;1.58;;;6.40;99.90;;;;;;5055887;28;20069;-65
2024/03/27 05:01:16;;;;;;;9.30;1.70;;;6.40;99.90;;;;;;5056071;28;20052;-66
2024/03/27 05:03:42;;;;;;;5.10;1.40;;;6.40;99.90;;;;;;5055747;28;20072;-66
2024/03/27 05:06:08;;;;;;;5.03;1.50;;;6.30;99.90;;;;;;5055627;28;20087;-65
2024/03/27 05:08:34;;;;;;;4.30;1.38;;;6.30;99.90;;;;;;5055468;28;20067;-65
2024/03/27 05:11:00;;;;;;;4.63;1.48;;;6.30;99.90;;;;;;5055807;28;20034;-65
2024/03/27 05:13:25;;;;;;;3.95;1.15;;;6.30;99.90;;;;;;5055445;28;20052;-65
2024/03/27 05:15:51;;;;;;;6.97;1.50;;;6.30;99.90;;;;;;5055261;28;20140;-65
2024/03/27 05:18:17;;;;;;;5.70;1.30;;;6.30;99.90;;;;;;5055638;28;20041;-65
2024/03/27 05:20:43;;;;;;;6.07;1.60;;;6.20;99.90;;;;;;5055633;28;20382;-66
2024/03/27 05:23:08;;;;;;;4.78;1.52;;;6.20;99.90;;;;;;5055114;28;20073;-65
2024/03/27 05:25:34;;;;;;;7.28;1.60;;;6.20;99.90;;;;;;5054960;28;20044;-65
2024/03/27 05:28:00;;;;;;;7.25;1.95;;;6.20;99.90;;;;;;5055235;28;20079;-65
2024/03/27 05:30:26;;;;;;;7.97;1.98;;;6.20;99.90;;;;;;5055361;28;20049;-65
2024/03/27 05:32:51;;;;;;;5.00;1.50;;;6.10;99.90;;;;;;5055300;28;20080;-65
2024/03/27 05:35:17;;;;;;;3.72;1.48;;;6.10;99.90;;;;;;5055067;28;20072;-65
2024/03/27 05:37:43;;;;;;;4.65;1.88;;;6.10;99.90;;;;;;5055532;28;20041;-65
2024/03/27 05:40:10;;;;;;;7.50;1.60;;;6.10;99.90;;;;;;5054927;28;20458;-61
2024/03/27 05:42:36;;;;;;;7.30;1.90;;;6.00;99.90;;;;;;5054976;28;20062;-62
2024/03/27 05:45:01;;;;;;;5.82;1.98;;;6.00;99.90;;;;;;5055040;28;20041;-62
2024/03/27 05:47:27;;;;;;;7.80;1.70;;;5.90;99.90;;;;;;5054978;28;20063;-62
2024/03/27 05:49:53;;;;;;;4.35;1.52;;;5.90;99.90;;;;;;5055350;28;20482;-65
2024/03/27 05:52:19;;;;;;;5.82;1.50;;;5.90;99.90;;;;;;5038142;28;20459;-65
2024/03/27 05:54:44;;;;;;;4.22;1.65;;;5.90;99.90;;;;;;5054952;28;20398;-66
2024/03/27 05:57:10;;;;;;;6.78;1.75;;;5.90;99.90;;;;;;5054798;28;20041;-66
2024/03/27 05:59:36;;;;;;;12.55;1.80;;;6.00;99.90;;;;;;5055082;28;20052;-66
2024/03/27 06:02:03;;;;;;;6.03;1.80;;;6.00;99.90;;;;;;5054880;28;20060;-66
2024/03/27 06:04:30;;;;;;;8.13;1.70;;;6.00;99.90;;;;;;5055041;28;20078;-66
2024/03/27 06:06:56;;;;;;;6.97;1.25;;;6.00;99.90;;;;;;5054296;28;20037;-65
2024/03/27 06:09:23;;;;;;;6.28;1.42;;;6.00;99.90;;;;;;5054051;28;20490;-65
2024/03/27 06:11:49;;;;;;;10.65;1.60;;;6.00;99.90;;;;;;5054652;28;20040;-65
2024/03/27 06:14:14;;;;;;;7.57;1.52;;;6.00;99.90;;;;;;5054809;28;20073;-66
2024/03/27 06:16:40;;;;;;;6.03;1.70;;;6.00;99.90;;;;;;5054243;28;20100;-66
2024/03/27 06:19:06;;;;;;;8.80;1.70;;;6.00;99.90;;;;;;5054708;28;20044;-65
2024/03/27 06:21:32;;;;;;;11.40;2.08;;;6.00;99.90;;;;;;5054533;28;20115;-66
2024/03/27 06:23:58;;;;;;;7.07;1.20;;;6.10;99.90;;;;;;5054554;28;20041;-65
2024/03/27 06:26:24;;;;;;;11.63;2.03;;;6.10;99.90;;;;;;5054599;28;20037;-66
2024/03/27 06:28:49;;;;;;;6.03;1.17;;;6.10;99.90;;;;;;5054207;28;20041;-65
2024/03/27 06:31:15;;;;;;;5.80;2.10;;;6.10;99.90;;;;;;5054242;28;20040;-66
2024/03/27 06:33:41;;;;;;;5.30;1.33;;;6.20;99.90;;;;;;5037558;28;20060;-65
2024/03/27 06:36:07;;;;;;;9.30;1.67;;;6.20;99.90;;;;;;5037597;28;20454;-65
2024/03/27 06:38:33;;;;;;;10.57;1.92;;;6.20;99.90;;;;;;5054329;28;20466;-65
2024/03/27 06:40:59;;;;;;;11.20;1.80;;;6.30;99.90;;;;;;5054267;28;20395;-66
2024/03/27 06:43:25;;;;;;;9.18;1.38;;;6.20;99.90;;;;;;5053863;28;20060;-65
2024/03/27 06:45:52;;;;;;;9.40;1.90;;;6.20;99.90;;;;;;5053675;28;20444;-65
2024/03/27 06:48:19;;;;;;;9.82;1.73;;;6.30;99.90;;;;;;5054233;28;20033;-65
2024/03/27 06:50:45;;;;;;;10.48;1.65;;;6.30;99.90;;;;;;5053545;28;20048;-65
2024/03/27 06:53:11;;;;;;;7.97;1.40;;;6.30;99.90;;;;;;5054586;28;20041;-66
2024/03/27 06:55:36;;;;;;;7.63;2.58;;;6.40;99.90;;;;;;5053805;28;20087;-59
2024/03/27 06:58:02;;;;;;;6.30;1.70;;;6.40;99.90;;;;;;5053946;28;20448;-59
2024/03/27 07:00:29;;;;;;;11.38;1.55;;;6.40;99.90;;;;;;5053702;28;20049;-60
2024/03/27 07:02:55;;;;;;;9.13;1.65;;;6.50;99.90;;;;;;5053183;28;20094;-60
2024/03/27 07:05:21;;;;;;;10.25;2.00;;;6.50;99.90;;;;;;5053000;28;20033;-60
2024/03/27 07:07:47;;;;;;;9.70;1.55;;;6.60;99.90;;;;;;5053331;28;20037;-60
2024/03/27 07:10:13;;;;;;;7.13;1.67;;;6.70;99.90;;;;;;5053605;28;20110;-60
2024/03/27 07:12:39;;;;;;;11.90;1.55;;;6.70;99.90;;;;;;5053619;28;20045;-60
2024/03/27 07:15:06;;;;;;;10.02;1.70;;;6.80;99.90;;;;;;5053685;28;20041;-60
2024/03/27 07:17:32;;;;;;;13.85;2.28;;;6.80;99.90;;;;;;5053063;28;20057;-60
2024/03/27 07:19:57;;;;;;;8.10;1.70;;;6.90;99.90;;;;;;5052315;28;20037;-60
2024/03/27 07:22:23;;;;;;;12.18;1.73;;;6.90;99.90;;;;;;5053339;28;20044;-60
2024/03/27 07:24:49;;;;;;;8.38;1.58;;;7.00;99.90;;;;;;5053475;28;20033;-60
2024/03/27 07:27:15;;;;;;;9.75;1.85;;;7.00;99.90;;;;;;5053123;28;20036;-59
2024/03/27 07:29:41;;;;;;;8.40;1.80;;;7.00;99.90;;;;;;5052925;28;20087;-60
2024/03/27 07:32:07;;;;;;;8.80;1.58;;;7.10;99.90;;;;;;5052970;28;20032;-60
2024/03/27 07:34:32;;;;;;;11.27;2.00;;;7.10;99.90;;;;;;5052948;28;20106;-60
2024/03/27 07:36:58;;;;;;;9.50;1.50;;;7.10;99.90;;;;;;5053007;28;20371;-65
2024/03/27 07:39:25;;;;;;;10.68;2.10;;;7.20;99.90;;;;;;5052982;28;20131;-65
2024/03/27 07:41:50;;;;;;;10.85;1.52;;;7.20;99.90;;;;;;5053186;28;20040;-61
2024/03/27 07:44:16;;;;;;;8.45;1.50;;;7.30;99.90;;;;;;5036454;28;20363;-61
2024/03/27 07:46:42;;;;;;;8.48;1.80;;;7.30;99.90;;;;;;5052696;28;20052;-61
2024/03/27 07:49:08;;;;;;;12.15;1.85;;;7.40;99.90;;;;;;5069383;28;20123;-61
2024/03/27 07:51:33;;;;;;;8.43;1.77;;;7.50;99.90;;;;;;5052789;28;20041;-61
2024/03/27 07:53:59;;;;;;;8.18;1.80;;;7.50;99.90;;;;;;5052980;28;20068;-61
2024/03/27 07:56:25;;;;;;;17.10;2.00;;;7.60;99.90;;;;;;5069386;28;20080;-62
2024/03/27 07:58:51;;;;;;;12.27;2.08;;;7.70;99.90;;;;;;5050169;28;20049;-62
2024/03/27 08:01:17;;;;;;;14.48;3.03;;;7.70;99.90;;;;;;5049291;28;20082;-61
2024/03/27 08:03:42;;;;;;;11.77;1.90;;;7.80;99.90;;;;;;5052483;28;20490;-62
2024/03/27 08:06:08;;;;;;;7.05;2.13;;;7.80;99.90;;;;;;5051817;28;20036;-61
2024/03/27 08:08:34;;;;;;;9.90;2.15;;;7.90;99.90;;;;;;5049082;28;20478;-61
2024/03/27 08:11:01;;;;;;;10.77;1.58;;;7.90;99.90;;;;;;5051778;28;20041;-61
2024/03/27 08:13:27;;;;;;;5.93;1.38;;;8.00;99.90;;;;;;5052136;28;20090;-61
2024/03/27 08:15:53;;;;;;;10.63;1.63;;;8.00;99.90;;;;;;5051063;28;20445;-62
2024/03/27 08:18:18;;;;;;;8.63;1.60;;;8.20;99.90;;;;;;5052011;28;20052;-67
2024/03/27 08:20:44;;;;;;;7.78;1.65;;;8.20;99.90;;;;;;5051409;28;20037;-67
2024/03/27 08:23:10;;;;;;;6.93;1.60;;;8.30;99.90;;;;;;5051633;28;20124;-67
2024/03/27 08:25:36;;;;;;;7.30;1.77;;;8.40;99.90;;;;;;5051691;28;20041;-67
2024/03/27 08:28:02;;;;;;;9.57;1.67;;;8.40;99.90;;;;;;5051616;28;20041;-67
2024/03/27 08:30:28;;;;;;;10.13;1.80;;;8.50;99.90;;;;;;5051911;28;20063;-67
2024/03/27 08:32:53;;;;;;;8.82;2.10;;;8.60;99.90;;;;;;5058273;28;20037;-67
2024/03/27 08:35:19;;;;;;;5.90;1.48;;;8.70;99.90;;;;;;5058173;28;20053;-67
2024/03/27 08:37:48;;;;;;;6.70;1.67;;;8.70;99.90;;;;;;5058098;28;20055;-67
2024/03/27 08:40:14;;;;;;;4.93;1.45;;;8.80;99.90;;;;;;5058441;28;20037;-67
2024/03/27 08:42:39;;;;;;;10.43;1.90;;;8.90;99.90;;;;;;5058026;28;20068;-67
2024/03/27 08:45:05;;;;;;;5.40;1.20;;;8.90;99.90;;;;;;5058144;28;20037;-67
2024/03/27 08:47:32;;;;;;;5.00;1.40;;;8.90;99.90;;;;;;5041127;28;20052;-68
2024/03/27 08:49:57;;;;;;;6.82;1.38;;;8.90;99.90;;;;;;5058294;28;20041;-66
2024/03/27 08:52:23;;;;;;;7.25;1.35;;;8.90;99.90;;;;;;5057754;28;20064;-66
2024/03/27 08:54:49;;;;;;;7.95;1.40;;;8.80;99.90;;;;;;5058619;28;20115;-66
2024/03/27 08:57:15;;;;;;;7.88;1.60;;;8.80;99.90;;;;;;5058563;28;20401;-66
2024/03/27 08:59:40;;;;;;;5.60;1.30;;;8.90;99.90;;;;;;5058628;28;20045;-66
2024/03/27 09:02:06;;;;;;;8.93;1.70;;;9.00;99.90;;;;;;5058664;28;20045;-66
2024/03/27 09:04:32;;;;;;;5.72;1.55;;;9.20;99.90;;;;;;5053754;28;20029;-67
2024/03/27 09:06:58;;;;;;;5.43;1.20;;;9.40;99.90;;;;;;5057685;28;20044;-66
2024/03/27 09:09:23;;;;;;;4.60;1.38;;;9.60;99.90;;;;;;5057594;28;20102;-67
2024/03/27 09:11:49;;;;;;;5.28;1.35;;;9.70;99.90;;;;;;5041017;28;20036;-67
2024/03/27 09:14:15;;;;;;;4.63;1.20;;;9.80;99.90;;;;;;5074502;28;20041;-67
2024/03/27 09:16:41;;;;;;;8.52;1.38;;;9.90;99.90;;;;;;5057635;28;20059;-67
2024/03/27 09:19:08;;;;;;;3.05;0.90;;;10.00;99.90;;;;;;5058045;28;20048;-66
2024/03/27 09:21:33;;;;;;;7.43;1.38;;;10.00;99.90;;;;;;5058016;28;20041;-67
2024/03/27 09:23:59;;;;;;;7.18;1.48;;;10.00;99.90;;;;;;5057665;28;20069;-67
2024/03/27 09:26:25;;;;;;;6.30;1.40;;;9.90;99.90;;;;;;5057942;28;20033;-66
2024/03/27 09:28:51;;;;;;;6.40;1.55;;;9.90;99.90;;;;;;5057863;28;20036;-67
2024/03/27 09:31:17;;;;;;;6.57;1.30;;;9.90;99.90;;;;;;5058069;28;20120;-66
2024/03/27 09:33:42;;;;;;;6.20;1.17;;;9.90;99.90;;;;;;5058498;28;20095;-67
2024/03/27 09:36:08;;;;;;;4.07;1.40;;;9.90;99.90;;;;;;5058332;28;20068;-67
2024/03/27 09:38:34;;;;;;;3.95;1.10;;;9.90;99.90;;;;;;5057241;28;20402;-67
2024/03/27 09:40:59;;;;;;;5.95;1.23;;;9.90;99.90;;;;;;5057683;28;20037;-63
2024/03/27 09:43:25;;;;;;;7.32;1.40;;;9.80;99.90;;;;;;5054807;28;20108;-62
2024/03/27 09:45:51;;;;;;;5.65;1.30;;;10.00;99.90;;;;;;5054483;28;20048;-63
2024/03/27 09:48:17;;;;;;;7.18;1.58;;;10.10;99.90;;;;;;5054574;28;20036;-61
2024/03/27 09:50:44;;;;;;;5.85;1.25;;;10.20;99.90;;;;;;5054464;28;20033;-60
2024/03/27 09:53:09;;;;;;;6.15;1.17;;;10.30;99.90;;;;;;5054358;28;20045;-60
2024/03/27 09:55:35;;;;;;;8.00;1.02;;;10.30;99.90;;;;;;5054392;28;20122;-60
2024/03/27 09:58:03;;;;;;;6.50;1.20;;;10.40;99.90;;;;;;5054193;28;20041;-60
2024/03/27 10:00:29;;;;;;;5.78;1.52;;;10.30;99.90;;;;;;5054148;28;20078;-63
2024/03/27 10:02:54;;;;;;;5.78;1.40;;;10.30;99.90;;;;;;5054014;28;20098;-61
2024/03/27 10:05:23;;;;;;;6.93;1.45;;;10.20;99.90;;;;;;5054403;28;20052;-61
2024/03/27 10:07:49;;;;;;;5.68;1.02;;;10.20;99.90;;;;;;5054349;28;20394;-62
2024/03/27 10:10:15;;;;;;;5.85;1.05;;;10.10;99.90;;;;;;5054334;28;20560;-61
2024/03/27 10:12:40;;;;;;;6.40;1.10;;;10.20;99.90;;;;;;5054581;28;20037;-61
2024/03/27 10:15:07;;;;;;;9.93;1.23;;;10.20;99.90;;;;;;5071306;28;20072;-61
2024/03/27 10:17:32;;;;;;;3.85;1.30;;;10.40;99.90;;;;;;5054321;28;20053;-61
2024/03/27 10:19:58;;;;;;;4.10;0.77;;;10.40;99.90;;;;;;5054539;28;20045;-61
2024/03/27 10:22:26;;;;;;;4.40;1.00;;;10.60;99.90;;;;;;5054553;28;20041;-60
2024/03/27 10:24:51;;;;;;;5.85;0.90;;;10.60;99.90;;;;;;5053489;28;20041;-63
2024/03/27 10:27:17;;;;;;;5.50;1.15;;;10.60;99.90;;;;;;5053579;28;20041;-63
2024/03/27 10:29:43;;;;;;;6.60;1.08;;;10.70;99.90;;;;;;5054247;28;20450;-63
2024/03/27 10:32:10;;;;;;;3.22;0.80;;;10.60;99.90;;;;;;5053917;28;20048;-69
2024/03/27 10:34:36;;;;;;;4.40;0.90;;;10.70;99.90;;;;;;5053828;28;20617;-69
2024/03/27 10:37:01;;;;;;;5.53;1.58;;;10.70;99.90;;;;;;5037096;28;20119;-69
2024/03/27 10:39:27;;;;;;;3.80;1.10;;;10.80;99.90;;;;;;5053751;28;20350;-69
2024/03/27 10:41:53;;;;;;;4.82;0.90;;;10.80;99.90;;;;;;5037003;28;20091;-68
2024/03/27 10:44:19;;;;;;;5.68;1.35;;;10.80;99.90;;;;;;5053278;28;20056;-68
2024/03/27 10:46:44;;;;;;;5.70;1.08;;;10.80;99.90;;;;;;5053489;28;20103;-68
2024/03/27 10:49:10;;;;;;;4.97;1.20;;;10.80;99.90;;;;;;5053304;28;20375;-68
2024/03/27 10:51:36;;;;;;;5.68;1.00;;;10.80;99.90;;;;;;5053220;28;20509;-68
2024/03/27 10:54:02;;;;;;;5.95;1.13;;;10.80;99.90;;;;;;5052985;28;20061;-67
2024/03/27 10:56:27;;;;;;;7.60;1.45;;;10.80;99.90;;;;;;5053228;28;20490;-67
2024/03/27 10:58:54;;;;;;;5.28;1.30;;;10.90;99.90;;;;;;5053125;28;20064;-68
2024/03/27 11:01:21;;;;;;;6.88;1.35;;;11.00;99.90;;;;;;5053199;28;20037;-67
2024/03/27 11:03:46;;;;;;;5.00;1.20;;;11.00;99.90;;;;;;5052788;28;20068;-68
2024/03/27 11:06:13;;;;;;;2.85;1.00;;;11.10;99.90;;;;;;5053037;28;20080;-68
2024/03/27 11:08:39;;;;;;;5.78;1.10;;;11.30;99.90;;;;;;5036361;28;20041;-68
2024/03/27 11:11:05;;;;;;;7.00;1.15;;;11.40;99.90;;;;;;5053036;28;20394;-66
2024/03/27 11:13:30;;;;;;;7.93;1.30;;;11.30;99.90;;;;;;5052529;28;20124;-66
2024/03/27 11:15:56;;;;;;;8.30;1.23;;;11.30;99.90;;;;;;5052484;28;20057;-69
2024/03/27 11:18:22;;;;;;;7.65;1.30;;;11.30;99.90;;;;;;5052324;28;20041;-67
2024/03/27 11:20:48;;;;;;;8.60;1.30;;;11.40;99.90;;;;;;5052284;28;20543;-67
2024/03/27 11:23:13;;;;;;;6.10;1.17;;;11.30;99.90;;;;;;5052607;28;20037;-64
2024/03/27 11:25:39;;;;;;;4.97;1.70;;;11.40;99.90;;;;;;5035622;28;20413;-64
2024/03/27 11:28:05;;;;;;;5.38;1.38;;;11.40;99.90;;;;;;5036369;28;20527;-64
2024/03/27 11:30:31;;;;;;;5.93;1.13;;;11.40;99.90;;;;;;5052645;28;20037;-64
2024/03/27 11:32:57;;;;;;;4.30;1.35;;;11.40;99.90;;;;;;5052677;28;20078;-64
2024/03/27 11:35:23;;;;;;;3.63;1.10;;;11.30;99.90;;;;;;5052359;28;20051;-64
2024/03/27 11:37:49;;;;;;;5.50;1.30;;;11.30;99.90;;;;;;5052846;28;20045;-64
2024/03/27 11:40:16;;;;;;;7.63;1.40;;;11.40;99.90;;;;;;5052757;28;20045;-63
2024/03/27 11:42:41;;;;;;;6.07;1.27;;;11.40;99.90;;;;;;5052302;28;20128;-64
2024/03/27 11:45:07;;;;;;;5.70;1.27;;;11.40;99.90;;;;;;5052325;28;20048;-64
2024/03/27 11:47:33;;;;;;;6.68;1.60;;;11.50;99.90;;;;;;5051697;28;20044;-65
2024/03/27 11:49:59;;;;;;;8.63;1.42;;;11.40;99.90;;;;;;5052362;28;20037;-64
2024/03/27 11:52:25;;;;;;;6.43;1.20;;;11.30;99.90;;;;;;5035677;28;20068;-64
2024/03/27 11:54:50;;;;;;;7.25;1.10;;;11.30;99.90;;;;;;5051797;28;20037;-63
2024/03/27 11:57:16;;;;;;;6.32;1.25;;;11.50;99.90;;;;;;5051755;28;20124;-65
2024/03/27 11:59:42;;;;;;;5.00;1.27;;;11.70;99.90;;;;;;5052297;28;20033;-63
2024/03/27 12:02:08;;;;;;;6.15;1.20;;;11.70;99.90;;;;;;5051549;28;20033;-63
2024/03/27 12:04:34;;;;;;;3.78;1.13;;;11.80;99.90;;;;;;5051798;28;20036;-62
2024/03/27 12:06:59;;;;;;;5.65;1.30;;;11.80;99.90;;;;;;5051020;28;20064;-62
2024/03/27 12:09:25;;;;;;;7.40;1.00;;;11.90;99.90;;;;;;5051930;28;20041;-62
2024/03/27 12:11:51;;;;;;;5.13;1.10;;;12.00;99.90;;;;;;5051680;28;20059;-63
2024/03/27 12:14:17;;;;;;;6.45;1.70;;;12.10;99.90;;;;;;5051580;28;20390;-63
2024/03/27 12:16:43;;;;;;;4.95;1.25;;;12.10;99.90;;;;;;5051180;28;20049;-63
2024/03/27 12:19:09;;;;;;;7.30;1.30;;;12.20;99.90;;;;;;5051579;28;20053;-63
2024/03/27 12:21:34;;;;;;;7.00;1.70;;;12.00;99.90;;;;;;5051741;28;20052;-63
2024/03/27 12:24:00;;;;;;;6.50;1.15;;;12.00;99.90;;;;;;5051429;28;20065;-63
2024/03/27 12:26:26;;;;;;;7.43;1.65;;;11.90;99.90;;;;;;5051111;28;20037;-63
2024/03/27 12:28:52;;;;;;;4.93;1.10;;;11.70;99.90;;;;;;5051464;28;20378;-63
2024/03/27 12:31:18;;;;;;;5.43;1.50;;;11.50;99.90;;;;;;5051544;28;20068;-63
2024/03/27 12:33:44;;;;;;;7.10;1.17;;;11.30;99.90;;;;;;5051695;28;20398;-63
2024/03/27 12:36:10;;;;;;;5.85;1.30;;;11.10;99.90;;;;;;5051234;28;20057;-63
2024/03/27 12:38:36;;;;;;;7.35;1.50;;;10.80;99.90;;;;;;5034745;28;20494;-63
2024/03/27 12:41:03;;;;;;;5.60;1.10;;;10.60;99.90;;;;;;5034615;28;20051;-63
2024/03/27 12:43:29;;;;;;;4.45;1.10;;;10.60;99.90;;;;;;5034274;28;20067;-62
2024/03/27 12:45:55;;;;;;;5.40;1.15;;;10.50;99.90;;;;;;5051597;28;20040;-62